Time;durP1;ratioP1;P1;durP2;ratioP2;P2;SDS_P1;SDS_P2;PMS_P1;PMS_P2;Temp;Humidity;BMP_temperature;BMP_pressure;BME280_temperature;BME280_humidity;BME280_pressure;Samples;Min_cycle;Max_cycle;Signal;HPM_P1;HPM_P2
2023/07/21 00:02:25;;;;;;;3.75;2.58;;;17.70;99.90;;;;;;5126335;28;20023;-73
2023/07/21 00:04:51;;;;;;;2.92;2.00;;;17.70;99.90;;;;;;5130315;28;20039;-73
2023/07/21 00:07:17;;;;;;;5.07;2.05;;;17.70;99.90;;;;;;5132925;28;20063;-72
2023/07/21 00:09:43;;;;;;;2.50;1.90;;;17.70;99.90;;;;;;5133433;28;20027;-73
2023/07/21 00:12:09;;;;;;;2.58;2.17;;;17.60;99.90;;;;;;5133119;28;20787;-73
2023/07/21 00:14:35;;;;;;;3.08;2.20;;;17.60;99.90;;;;;;5133664;28;20122;-73
2023/07/21 00:17:04;;;;;;;4.13;2.10;;;17.60;99.90;;;;;;5133786;28;20027;-74
2023/07/21 00:19:30;;;;;;;2.22;2.00;;;17.60;99.90;;;;;;5122563;28;20027;-73
2023/07/21 00:21:56;;;;;;;2.53;2.20;;;17.60;99.90;;;;;;5121776;28;20152;-74
2023/07/21 00:24:22;;;;;;;2.17;1.98;;;17.60;99.90;;;;;;5137200;27;20027;-74
2023/07/21 00:26:47;;;;;;;3.35;2.05;;;17.50;99.90;;;;;;5119480;27;20026;-73
2023/07/21 00:29:13;;;;;;;2.35;1.70;;;17.50;99.90;;;;;;5137643;27;20015;-73
2023/07/21 00:31:39;;;;;;;3.05;1.80;;;17.50;99.90;;;;;;5137826;27;20522;-73
2023/07/21 00:34:05;;;;;;;3.40;1.70;;;17.50;99.90;;;;;;5134300;27;20023;-73
2023/07/21 00:36:31;;;;;;;3.67;1.60;;;17.50;99.90;;;;;;5133597;27;20067;-74
2023/07/21 00:38:58;;;;;;;3.10;1.77;;;17.50;99.90;;;;;;5113171;28;20028;-73
2023/07/21 00:41:25;;;;;;;2.45;1.70;;;17.50;99.90;;;;;;5137552;27;20015;-73
2023/07/21 00:43:51;;;;;;;2.17;1.98;;;17.50;99.90;;;;;;5138376;27;20023;-74
2023/07/21 00:46:17;;;;;;;2.88;2.00;;;17.50;99.90;;;;;;5124806;27;20080;-73
2023/07/21 00:48:43;;;;;;;2.53;1.90;;;17.50;99.90;;;;;;5136164;27;20015;-73
2023/07/21 00:51:10;;;;;;;3.97;2.10;;;17.50;99.90;;;;;;5134765;27;20100;-73
2023/07/21 00:53:36;;;;;;;5.40;2.35;;;17.50;99.90;;;;;;5112327;27;20031;-73
2023/07/21 00:56:02;;;;;;;3.90;2.33;;;17.50;99.90;;;;;;5130652;27;20041;-73
2023/07/21 00:58:30;;;;;;;3.10;2.15;;;17.40;99.90;;;;;;5123904;27;20090;-73
2023/07/21 01:00:55;;;;;;;4.55;2.00;;;17.40;99.90;;;;;;5128262;27;20026;-74
2023/07/21 01:03:22;;;;;;;3.88;1.98;;;17.40;99.90;;;;;;5133999;27;20460;-73
2023/07/21 01:05:52;;;;;;;3.47;1.90;;;17.40;99.90;;;;;;5128129;27;20019;-74
2023/07/21 01:08:19;;;;;;;3.10;2.28;;;17.50;99.90;;;;;;5137292;27;20023;-74
2023/07/21 01:10:45;;;;;;;4.55;2.40;;;17.40;99.90;;;;;;5137758;27;20058;-74
2023/07/21 01:13:12;;;;;;;2.88;2.22;;;17.40;99.90;;;;;;5123462;27;20149;-74
2023/07/21 01:15:45;;;;;;;4.03;2.95;;;17.40;99.90;;;;;;5136921;27;20019;-74
2023/07/21 01:18:14;;;;;;;3.17;2.85;;;17.40;99.90;;;;;;5127512;27;20034;-74
2023/07/21 01:20:42;;;;;;;3.60;2.90;;;17.40;99.90;;;;;;5115132;27;20035;-74
2023/07/21 01:23:20;;;;;;;4.57;3.33;;;17.40;99.90;;;;;;5136074;27;20364;-74
2023/07/21 01:25:47;;;;;;;4.07;3.20;;;17.40;99.90;;;;;;5134612;27;20030;-74
2023/07/21 01:28:14;;;;;;;4.63;3.58;;;17.30;99.90;;;;;;5125565;27;20019;-74
2023/07/21 01:30:41;;;;;;;5.53;4.00;;;17.30;99.90;;;;;;5119770;27;20015;-74
2023/07/21 01:33:08;;;;;;;4.30;3.88;;;17.30;99.90;;;;;;5135540;27;20031;-74
2023/07/21 01:35:36;;;;;;;5.55;3.90;;;17.30;99.90;;;;;;5131052;27;20398;-74
2023/07/21 01:38:03;;;;;;;4.30;3.90;;;17.20;99.90;;;;;;5127833;27;20101;-74
2023/07/21 01:40:29;;;;;;;4.68;3.88;;;17.20;99.90;;;;;;5128343;27;20015;-74
2023/07/21 01:42:56;;;;;;;6.13;4.10;;;17.20;99.90;;;;;;5117545;27;20472;-74
2023/07/21 01:45:22;;;;;;;6.70;3.60;;;17.20;99.90;;;;;;5134193;27;20413;-73
2023/07/21 01:47:48;;;;;;;4.22;3.70;;;17.20;99.90;;;;;;5130611;27;20027;-74
2023/07/21 01:50:18;;;;;;;4.97;3.60;;;17.20;99.90;;;;;;5134239;27;20017;-73
2023/07/21 01:52:46;;;;;;;5.43;3.90;;;17.20;99.90;;;;;;5130100;27;20043;-73
2023/07/21 01:55:23;;;;;;;6.43;3.65;;;17.20;99.90;;;;;;5130454;27;20021;-74
2023/07/21 01:57:55;;;;;;;3.85;3.35;;;17.20;99.90;;;;;;5131193;27;20472;-73
2023/07/21 02:00:22;;;;;;;4.75;2.92;;;17.20;99.90;;;;;;5129469;27;20047;-74
2023/07/21 02:02:50;;;;;;;4.40;3.00;;;17.10;99.90;;;;;;5131412;27;20008;-73
2023/07/21 02:05:23;;;;;;;3.65;3.00;;;17.10;99.90;;;;;;5124994;27;20053;-74
2023/07/21 02:07:50;;;;;;;3.67;3.33;;;17.10;99.90;;;;;;5134688;27;20039;-74
2023/07/21 02:10:17;;;;;;;5.47;3.65;;;17.10;99.90;;;;;;5134490;27;20027;-74
2023/07/21 02:12:42;;;;;;;5.20;3.20;;;17.00;99.90;;;;;;5116155;27;20023;-74
2023/07/21 02:15:09;;;;;;;3.35;3.00;;;17.00;99.90;;;;;;5130940;27;20022;-73
2023/07/21 02:17:35;;;;;;;5.45;3.50;;;17.00;99.90;;;;;;5134101;27;20344;-74
2023/07/21 02:20:08;;;;;;;5.35;3.28;;;17.00;99.90;;;;;;5132167;27;20015;-74
2023/07/21 02:22:43;;;;;;;3.67;2.90;;;17.00;99.90;;;;;;5129467;27;20027;-73
2023/07/21 02:25:09;;;;;;;5.10;3.47;;;17.00;99.90;;;;;;5129871;27;20027;-73
2023/07/21 02:27:35;;;;;;;4.63;3.25;;;17.00;99.90;;;;;;5101249;27;20032;-73
2023/07/21 02:30:02;;;;;;;7.63;3.30;;;17.00;99.90;;;;;;5127564;27;20047;-73
2023/07/21 02:32:28;;;;;;;6.22;3.40;;;17.00;99.90;;;;;;5134081;27;20019;-73
2023/07/21 02:34:54;;;;;;;4.90;3.40;;;17.00;99.90;;;;;;5134192;27;20523;-73
2023/07/21 02:37:20;;;;;;;4.43;3.17;;;17.00;99.90;;;;;;5133682;27;20739;-73
2023/07/21 02:39:45;;;;;;;4.90;3.30;;;17.00;99.90;;;;;;5133939;27;20043;-73
2023/07/21 02:42:11;;;;;;;5.25;3.30;;;16.90;99.90;;;;;;5133824;27;20031;-73
2023/07/21 02:44:36;;;;;;;5.35;3.40;;;16.90;99.90;;;;;;5133674;27;20122;-73
2023/07/21 02:47:02;;;;;;;3.85;2.95;;;16.90;99.90;;;;;;5133062;27;20458;-73
2023/07/21 02:49:30;;;;;;;4.03;3.00;;;16.80;99.90;;;;;;5120915;27;20114;-73
2023/07/21 02:51:56;;;;;;;3.20;2.90;;;16.80;99.90;;;;;;5114874;27;20053;-73
2023/07/21 02:54:21;;;;;;;3.28;2.88;;;16.70;99.90;;;;;;5127313;27;20027;-73
2023/07/21 02:56:47;;;;;;;3.65;3.00;;;16.70;99.90;;;;;;5133352;27;20023;-73
2023/07/21 02:59:13;;;;;;;5.32;3.00;;;16.60;99.90;;;;;;5133783;27;20015;-73
2023/07/21 03:01:39;;;;;;;3.30;3.00;;;16.60;99.90;;;;;;5133407;27;20098;-73
2023/07/21 03:04:05;;;;;;;4.20;3.30;;;16.60;99.90;;;;;;5133304;27;20094;-73
2023/07/21 03:06:31;;;;;;;3.35;2.92;;;16.50;99.90;;;;;;5132152;27;20023;-73
2023/07/21 03:08:57;;;;;;;3.60;2.90;;;16.50;99.90;;;;;;5101543;27;20031;-73
2023/07/21 03:11:23;;;;;;;3.22;2.75;;;16.40;99.90;;;;;;5133156;27;20025;-73
2023/07/21 03:13:49;;;;;;;4.97;2.90;;;16.40;99.90;;;;;;5130495;27;20063;-73
2023/07/21 03:16:15;;;;;;;4.90;2.70;;;16.40;99.90;;;;;;5113746;27;20492;-73
2023/07/21 03:18:41;;;;;;;5.43;2.75;;;16.30;99.90;;;;;;5119332;27;20035;-73
2023/07/21 03:21:07;;;;;;;4.05;3.10;;;16.30;99.90;;;;;;5121981;27;20030;-73
2023/07/21 03:23:33;;;;;;;5.50;3.03;;;16.30;99.90;;;;;;5125901;27;20523;-73
2023/07/21 03:25:59;;;;;;;4.32;3.00;;;16.20;99.90;;;;;;5128340;27;20084;-72
2023/07/21 03:28:27;;;;;;;6.00;3.35;;;16.20;99.90;;;;;;5129216;27;20023;-73
2023/07/21 03:30:57;;;;;;;3.40;3.10;;;16.20;99.90;;;;;;5133413;27;20030;-73
2023/07/21 03:33:23;;;;;;;3.83;3.20;;;16.20;99.90;;;;;;5115416;27;20030;-73
2023/07/21 03:36:00;;;;;;;6.10;3.08;;;16.10;99.90;;;;;;5116173;28;20023;-74
2023/07/21 03:38:29;;;;;;;4.38;3.20;;;16.20;99.90;;;;;;5117148;27;20085;-74
2023/07/21 03:41:06;;;;;;;4.78;2.90;;;16.20;99.90;;;;;;5130267;27;20054;-74
2023/07/21 03:43:32;;;;;;;5.80;3.00;;;16.10;99.90;;;;;;5127727;27;20031;-74
2023/07/21 03:46:02;;;;;;;3.38;3.05;;;16.10;99.90;;;;;;5126792;27;20031;-74
2023/07/21 03:48:29;;;;;;;4.38;3.28;;;16.10;99.90;;;;;;5128530;27;20557;-74
2023/07/21 03:51:04;;;;;;;5.28;3.55;;;16.10;99.90;;;;;;5133738;27;20462;-74
2023/07/21 03:53:31;;;;;;;4.60;3.28;;;16.10;99.90;;;;;;5115537;28;20519;-74
2023/07/21 03:55:57;;;;;;;5.97;3.50;;;16.10;99.90;;;;;;5115249;27;20038;-74
2023/07/21 03:58:22;;;;;;;4.60;3.33;;;16.10;99.90;;;;;;5126141;27;20016;-74
2023/07/21 04:00:48;;;;;;;4.28;3.65;;;16.10;99.90;;;;;;5127627;27;20110;-74
2023/07/21 04:03:15;;;;;;;3.55;3.20;;;16.10;99.90;;;;;;5115284;28;20673;-74
2023/07/21 04:05:40;;;;;;;4.85;3.30;;;16.20;99.90;;;;;;5132988;28;20019;-74
2023/07/21 04:08:06;;;;;;;3.90;3.05;;;16.10;99.90;;;;;;5133617;28;20136;-74
2023/07/21 04:10:33;;;;;;;4.15;3.67;;;16.20;99.90;;;;;;5133826;28;20391;-74
2023/07/21 04:12:59;;;;;;;6.50;4.00;;;16.20;99.90;;;;;;5133340;28;20156;-74
2023/07/21 04:15:26;;;;;;;4.43;3.80;;;16.20;99.90;;;;;;5133688;28;20036;-74
2023/07/21 04:17:54;;;;;;;5.68;4.25;;;16.30;99.90;;;;;;5133604;28;20038;-72
2023/07/21 04:20:22;;;;;;;4.70;4.18;;;16.30;99.90;;;;;;5131278;28;20029;-73
2023/07/21 04:22:48;;;;;;;4.35;3.67;;;16.30;99.90;;;;;;5122085;28;20019;-73
2023/07/21 04:25:15;;;;;;;5.93;3.80;;;16.30;99.90;;;;;;5133541;28;20046;-73
2023/07/21 04:27:41;;;;;;;5.75;4.00;;;16.30;99.90;;;;;;5133135;28;20024;-74
2023/07/21 04:30:07;;;;;;;4.70;3.50;;;16.40;99.90;;;;;;5120167;28;20031;-75
2023/07/21 04:32:33;;;;;;;10.02;3.83;;;16.40;99.90;;;;;;5130330;28;20084;-74
2023/07/21 04:34:59;;;;;;;4.07;3.53;;;16.40;99.90;;;;;;5114992;28;20380;-73
2023/07/21 04:37:25;;;;;;;5.88;3.90;;;16.40;99.90;;;;;;5133279;28;20023;-73
2023/07/21 04:39:51;;;;;;;4.60;3.70;;;16.50;99.90;;;;;;5133715;28;20585;-74
2023/07/21 04:42:17;;;;;;;5.28;4.15;;;16.50;99.90;;;;;;5133172;28;20023;-73
2023/07/21 04:44:44;;;;;;;4.90;4.40;;;16.50;99.90;;;;;;5125460;28;20020;-73
2023/07/21 04:47:10;;;;;;;7.30;4.32;;;16.60;99.90;;;;;;5123649;28;20029;-74
2023/07/21 04:49:36;;;;;;;9.50;4.82;;;16.60;99.90;;;;;;5129412;28;20027;-74
2023/07/21 04:52:03;;;;;;;7.85;5.95;;;16.60;99.90;;;;;;5132793;28;20070;-74
2023/07/21 04:54:29;;;;;;;9.27;7.03;;;16.70;99.90;;;;;;5124516;28;20053;-74
2023/07/21 04:56:55;;;;;;;8.00;6.82;;;16.60;99.90;;;;;;5131475;28;20030;-75
2023/07/21 04:59:20;;;;;;;6.82;6.13;;;16.60;99.90;;;;;;5114167;28;20012;-74
2023/07/21 05:01:47;;;;;;;8.90;6.90;;;16.70;99.90;;;;;;5133318;28;20095;-73
2023/07/21 05:04:14;;;;;;;9.07;6.95;;;16.70;99.90;;;;;;5128666;28;20070;-73
2023/07/21 05:06:42;;;;;;;9.85;7.18;;;16.80;99.90;;;;;;5132927;28;20098;-73
2023/07/21 05:09:09;;;;;;;8.25;6.85;;;16.80;99.90;;;;;;5116202;27;20115;-73
2023/07/21 05:11:35;;;;;;;9.43;7.65;;;16.80;99.90;;;;;;5135575;27;20478;-73
2023/07/21 05:14:03;;;;;;;8.57;6.93;;;16.80;99.90;;;;;;5126776;27;20042;-73
2023/07/21 05:16:30;;;;;;;9.90;7.57;;;16.90;99.90;;;;;;5136815;27;20058;-73
2023/07/21 05:18:56;;;;;;;9.20;6.82;;;16.90;99.90;;;;;;5131084;27;20011;-73
2023/07/21 05:21:21;;;;;;;10.10;7.35;;;16.90;99.90;;;;;;5136877;27;20390;-73
2023/07/21 05:23:47;;;;;;;11.02;7.68;;;16.90;99.90;;;;;;5130046;27;20027;-74
2023/07/21 05:26:13;;;;;;;9.70;7.05;;;16.90;99.90;;;;;;5136701;27;20546;-74
2023/07/21 05:28:38;;;;;;;11.13;7.28;;;17.00;99.90;;;;;;5113878;27;20028;-74
2023/07/21 05:31:06;;;;;;;8.95;6.53;;;17.00;99.90;;;;;;5135921;27;20030;-74
2023/07/21 05:33:32;;;;;;;9.68;7.38;;;17.00;99.90;;;;;;5132372;27;20015;-74
2023/07/21 05:36:08;;;;;;;10.60;7.60;;;17.10;99.90;;;;;;5125905;27;20030;-75
2023/07/21 05:38:37;;;;;;;11.25;7.80;;;17.10;99.90;;;;;;5125933;27;20038;-75
2023/07/21 05:41:04;;;;;;;11.30;8.00;;;17.10;99.90;;;;;;5132006;27;20065;-74
2023/07/21 05:43:29;;;;;;;10.20;7.68;;;17.10;99.90;;;;;;5135169;27;20047;-74
2023/07/21 05:45:55;;;;;;;10.52;7.35;;;17.10;99.90;;;;;;5128327;27;20023;-74
2023/07/21 05:48:21;;;;;;;13.45;7.68;;;17.20;99.90;;;;;;5131841;27;20039;-74
2023/07/21 05:50:47;;;;;;;11.57;7.25;;;17.20;99.90;;;;;;5134617;27;20094;-74
2023/07/21 05:53:14;;;;;;;15.95;8.23;;;17.20;99.90;;;;;;5135073;27;20495;-74
2023/07/21 05:55:42;;;;;;;14.20;8.13;;;17.20;99.90;;;;;;5133368;27;20581;-74
2023/07/21 05:58:11;;;;;;;13.73;7.95;;;17.20;99.90;;;;;;5134569;27;20407;-74
2023/07/21 06:00:38;;;;;;;15.48;8.10;;;17.30;99.90;;;;;;5133341;27;20023;-73
2023/07/21 06:03:05;;;;;;;9.52;7.53;;;17.30;99.90;;;;;;5133055;27;20029;-73
2023/07/21 06:05:30;;;;;;;10.73;7.32;;;17.40;99.90;;;;;;5116111;27;20414;-74
2023/07/21 06:07:56;;;;;;;8.52;6.80;;;17.30;99.90;;;;;;5134525;27;20093;-74
2023/07/21 06:10:22;;;;;;;12.32;7.88;;;17.40;99.90;;;;;;5134185;27;20145;-72
2023/07/21 06:12:50;;;;;;;11.68;7.43;;;17.40;99.90;;;;;;5133141;27;20023;-74
2023/07/21 06:15:16;;;;;;;11.48;7.35;;;17.50;99.90;;;;;;5134381;27;20027;-73
2023/07/21 06:17:42;;;;;;;11.65;8.20;;;17.50;99.90;;;;;;5134570;27;20023;-73
2023/07/21 06:20:10;;;;;;;16.40;8.52;;;17.60;99.90;;;;;;5127046;27;20026;-73
2023/07/21 06:22:36;;;;;;;14.38;7.75;;;17.60;99.90;;;;;;5131471;27;20015;-73
2023/07/21 06:25:04;;;;;;;11.65;7.88;;;17.60;99.90;;;;;;5115868;27;20114;-74
2023/07/21 06:27:29;;;;;;;15.18;9.20;;;17.70;99.90;;;;;;5134770;27;20114;-73
2023/07/21 06:29:55;;;;;;;14.57;9.25;;;17.70;99.90;;;;;;5134857;27;20055;-73
2023/07/21 06:32:21;;;;;;;11.90;9.10;;;17.70;99.90;;;;;;5121569;27;20514;-73
2023/07/21 06:34:47;;;;;;;13.07;8.15;;;17.70;99.90;;;;;;5132312;27;20019;-74
2023/07/21 06:37:13;;;;;;;14.15;9.10;;;17.80;99.90;;;;;;5134104;27;20102;-73
2023/07/21 06:39:38;;;;;;;12.13;8.63;;;17.90;99.90;;;;;;5117273;27;20015;-72
2023/07/21 06:42:05;;;;;;;12.73;8.77;;;17.90;99.90;;;;;;5134391;27;20076;-73
2023/07/21 06:44:31;;;;;;;13.00;7.85;;;17.90;99.90;;;;;;5122963;27;20095;-73
2023/07/21 06:46:57;;;;;;;8.52;7.28;;;18.00;99.90;;;;;;5126573;27;20019;-73
2023/07/21 06:49:23;;;;;;;10.15;7.60;;;18.10;99.90;;;;;;5131478;27;20058;-73
2023/07/21 06:51:49;;;;;;;9.98;7.40;;;18.10;99.90;;;;;;5133561;27;20522;-73
2023/07/21 06:54:14;;;;;;;8.65;6.00;;;18.20;99.90;;;;;;5129125;27;20018;-73
2023/07/21 06:56:40;;;;;;;8.30;6.78;;;18.20;99.90;;;;;;5131427;27;20417;-73
2023/07/21 06:59:06;;;;;;;9.73;6.03;;;18.30;99.90;;;;;;5129444;27;20094;-73
2023/07/21 07:01:31;;;;;;;7.38;5.88;;;18.40;99.90;;;;;;5134095;27;20031;-73
2023/07/21 07:03:58;;;;;;;5.10;4.10;;;18.50;99.90;;;;;;5134002;27;20023;-72
2023/07/21 07:06:24;;;;;;;7.50;4.30;;;18.60;99.90;;;;;;5129263;27;20047;-73
2023/07/21 07:08:50;;;;;;;6.55;5.03;;;18.70;99.90;;;;;;5133280;27;20080;-73
2023/07/21 07:11:15;;;;;;;5.45;4.88;;;18.70;99.90;;;;;;5133717;27;20414;-73
2023/07/21 07:13:41;;;;;;;5.20;4.53;;;18.80;99.90;;;;;;5129271;27;20028;-75
2023/07/21 07:16:07;;;;;;;6.32;4.32;;;18.90;99.90;;;;;;5126988;27;20038;-74
2023/07/21 07:18:32;;;;;;;5.55;3.38;;;18.90;99.90;;;;;;5122026;27;20027;-74
2023/07/21 07:20:58;;;;;;;4.40;3.92;;;19.00;99.90;;;;;;5132590;27;20016;-73
2023/07/21 07:23:24;;;;;;;6.97;4.30;;;19.00;99.90;;;;;;5133084;27;20472;-76
2023/07/21 07:25:52;;;;;;;4.97;4.30;;;19.10;99.90;;;;;;5132087;27;20156;-73
2023/07/21 07:28:19;;;;;;;6.20;4.10;;;19.20;99.90;;;;;;5124832;27;20051;-71
2023/07/21 07:30:45;;;;;;;4.93;3.55;;;19.20;99.90;;;;;;5126771;27;20472;-72
2023/07/21 07:33:14;;;;;;;3.67;3.38;;;19.30;99.90;;;;;;5129595;27;20015;-72
2023/07/21 07:36:06;;;;;;;4.88;2.50;;;19.40;99.90;;;;;;5130971;27;20479;-72
2023/07/21 07:38:32;;;;;;;10.23;6.20;;;19.60;99.90;;;;;;5120155;27;20472;-73
2023/07/21 07:41:03;;;;;;;8.38;4.53;;;19.70;99.90;;;;;;5132790;27;20026;-74
2023/07/21 07:43:32;;;;;;;8.45;3.70;;;19.70;99.90;;;;;;5132601;27;20019;-73
2023/07/21 07:45:57;;;;;;;4.63;3.25;;;19.80;99.90;;;;;;5132900;27;20033;-73
2023/07/21 07:48:23;;;;;;;4.68;3.22;;;19.80;99.90;;;;;;5122859;27;20062;-72
2023/07/21 07:50:51;;;;;;;6.70;3.78;;;19.90;99.90;;;;;;5130806;27;20083;-73
2023/07/21 07:53:17;;;;;;;5.07;3.47;;;19.90;99.90;;;;;;5124956;27;20076;-73
2023/07/21 07:55:43;;;;;;;4.97;2.78;;;20.00;99.90;;;;;;5126488;27;20015;-72
2023/07/21 07:58:09;;;;;;;4.55;3.40;;;20.20;99.90;;;;;;5125023;27;20106;-73
2023/07/21 08:00:38;;;;;;;4.28;3.13;;;20.30;99.90;;;;;;5132540;28;20433;-73
2023/07/21 08:03:09;;;;;;;5.97;2.60;;;20.40;99.90;;;;;;5132895;27;20054;-73
2023/07/21 08:05:35;;;;;;;4.00;2.60;;;20.40;99.90;;;;;;5122132;28;20367;-78
2023/07/21 08:08:02;;;;;;;7.18;3.00;;;20.50;99.90;;;;;;5135081;28;20068;-78
2023/07/21 08:10:29;;;;;;;7.32;2.80;;;20.50;99.90;;;;;;5136524;28;20064;-79
2023/07/21 08:12:59;;;;;;;3.80;3.00;;;20.60;99.90;;;;;;5139738;28;20031;-79
2023/07/21 08:15:28;;;;;;;4.03;3.38;;;20.60;99.90;;;;;;5135918;28;20019;-78
2023/07/21 08:17:54;;;;;;;4.43;2.90;;;20.70;99.90;;;;;;5140390;28;20484;-79
2023/07/21 08:20:20;;;;;;;3.78;2.95;;;20.70;99.90;;;;;;5129671;28;20026;-78
2023/07/21 08:22:47;;;;;;;5.30;2.67;;;20.80;99.90;;;;;;5115037;28;20026;-78
2023/07/21 08:25:13;;;;;;;7.57;3.08;;;20.70;99.90;;;;;;5133325;28;20054;-78
2023/07/21 08:27:39;;;;;;;4.85;2.90;;;20.70;99.90;;;;;;5129256;28;20034;-78
2023/07/21 08:30:08;;;;;;;3.88;2.55;;;20.70;99.90;;;;;;5138026;28;20079;-77
2023/07/21 08:32:38;;;;;;;6.65;2.72;;;20.80;99.90;;;;;;5136813;28;20027;-78
2023/07/21 08:35:05;;;;;;;4.60;3.42;;;20.90;99.90;;;;;;5135884;28;20499;-77
2023/07/21 08:37:31;;;;;;;4.25;3.63;;;21.00;99.90;;;;;;5134618;28;20071;-77
2023/07/21 08:39:57;;;;;;;6.97;3.30;;;21.20;99.90;;;;;;5134235;28;20098;-77
2023/07/21 08:42:24;;;;;;;4.90;2.78;;;21.20;99.90;;;;;;5133958;28;20008;-77
2023/07/21 08:44:53;;;;;;;3.22;2.80;;;21.40;99.90;;;;;;5134661;27;20168;-77
2023/07/21 08:47:19;;;;;;;3.03;2.35;;;21.60;99.90;;;;;;5116071;27;20023;-77
2023/07/21 08:49:46;;;;;;;3.60;2.28;;;21.80;99.90;;;;;;5137991;27;20019;-77
2023/07/21 08:52:11;;;;;;;3.97;2.35;;;22.10;99.90;;;;;;5127139;27;20046;-78
2023/07/21 08:54:37;;;;;;;3.15;1.95;;;22.40;99.90;;;;;;5135912;27;20432;-77
2023/07/21 08:57:03;;;;;;;3.20;1.83;;;22.60;99.60;;;;;;5135879;27;20479;-78
2023/07/21 08:59:29;;;;;;;3.65;1.70;;;22.60;98.40;;;;;;5133718;27;20031;-77
2023/07/21 09:01:54;;;;;;;3.25;1.83;;;22.60;97.60;;;;;;5132466;27;20023;-77
2023/07/21 09:04:25;;;;;;;3.33;1.73;;;22.50;97.40;;;;;;5136411;27;20016;-76
2023/07/21 09:06:59;;;;;;;2.97;2.10;;;22.50;97.10;;;;;;5135591;27;20050;-77
2023/07/21 09:09:35;;;;;;;3.40;1.70;;;22.60;96.70;;;;;;5135756;27;20019;-77
2023/07/21 09:12:04;;;;;;;3.25;1.60;;;22.60;96.90;;;;;;5129804;27;20519;-77
2023/07/21 09:14:36;;;;;;;5.70;1.88;;;22.40;97.00;;;;;;5110907;27;20080;-77
2023/07/21 09:17:04;;;;;;;2.35;1.70;;;22.40;97.10;;;;;;5135272;27;20030;-77
2023/07/21 09:19:30;;;;;;;5.65;1.83;;;22.30;97.30;;;;;;5135536;27;20064;-77
2023/07/21 09:21:56;;;;;;;4.50;1.80;;;22.10;97.60;;;;;;5136376;27;20015;-79
2023/07/21 09:24:22;;;;;;;10.32;2.42;;;21.90;98.20;;;;;;5130991;27;20012;-79
2023/07/21 09:26:47;;;;;;;13.32;2.80;;;21.70;99.30;;;;;;5131428;27;20047;-80
2023/07/21 09:29:19;;;;;;;7.05;2.50;;;21.50;99.90;;;;;;5127250;28;20023;-80
2023/07/21 09:31:47;;;;;;;7.72;2.33;;;21.30;99.90;;;;;;5142542;27;20030;-80
2023/07/21 09:34:12;;;;;;;6.15;1.95;;;21.20;99.90;;;;;;5145817;27;20023;-80
2023/07/21 09:36:45;;;;;;;2.67;2.08;;;21.10;99.90;;;;;;5129198;27;20033;-79
2023/07/21 09:39:14;;;;;;;7.28;1.67;;;20.90;99.90;;;;;;5123283;28;20186;-78
2023/07/21 09:41:40;;;;;;;3.63;1.40;;;20.80;99.90;;;;;;5136112;27;20019;-75
2023/07/21 09:44:06;;;;;;;2.45;1.27;;;20.60;99.90;;;;;;5136271;27;20169;-75
2023/07/21 09:46:33;;;;;;;3.38;1.40;;;20.60;99.90;;;;;;5135871;27;20114;-75
2023/07/21 09:48:58;;;;;;;1.92;1.10;;;20.40;99.90;;;;;;5133087;27;20024;-75
2023/07/21 09:51:26;;;;;;;1.90;1.30;;;20.40;99.90;;;;;;5136305;27;20446;-75
2023/07/21 09:53:53;;;;;;;2.47;1.50;;;20.20;99.90;;;;;;5136385;27;20023;-75
2023/07/21 09:56:20;;;;;;;5.20;1.48;;;20.10;99.90;;;;;;5135474;27;20475;-76
2023/07/21 09:59:07;;;;;;;3.25;1.30;;;20.00;99.90;;;;;;5122635;27;20034;-77
2023/07/21 10:01:33;;;;;;;1.85;1.30;;;19.90;99.90;;;;;;5136228;27;20102;-76
2023/07/21 10:04:00;;;;;;;6.75;1.77;;;19.90;99.90;;;;;;5135942;27;20019;-76
2023/07/21 10:06:26;;;;;;;3.40;1.60;;;19.90;99.90;;;;;;5136152;27;20429;-77
2023/07/21 10:08:52;;;;;;;1.65;1.30;;;19.90;99.90;;;;;;5122505;27;20102;-76
2023/07/21 10:11:18;;;;;;;1.85;1.40;;;19.90;99.90;;;;;;5136053;27;20019;-76
2023/07/21 10:13:45;;;;;;;3.33;1.30;;;20.00;99.90;;;;;;5125705;27;20053;-76
2023/07/21 10:16:11;;;;;;;3.22;1.30;;;20.00;99.90;;;;;;5135645;27;20023;-75
2023/07/21 10:19:11;;;;;;;2.75;1.40;;;20.00;99.90;;;;;;5131230;27;20719;-77
2023/07/21 10:21:56;;;;;;;2.42;1.20;;;20.00;99.90;;;;;;5129162;27;20022;-75
2023/07/21 10:24:29;;;;;;;2.10;1.40;;;19.90;99.90;;;;;;5131170;27;20479;-77
2023/07/21 10:26:58;;;;;;;2.45;1.58;;;19.80;99.90;;;;;;5141064;27;20038;-78
2023/07/21 10:29:24;;;;;;;1.70;1.42;;;19.70;99.90;;;;;;5124831;27;20587;-78
2023/07/21 10:31:54;;;;;;;3.72;1.70;;;19.60;99.90;;;;;;5132596;27;20049;-78
2023/07/21 10:34:31;;;;;;;4.65;1.50;;;19.60;99.90;;;;;;5135101;27;20023;-77
2023/07/21 10:36:58;;;;;;;4.85;1.80;;;19.60;99.90;;;;;;5133060;27;20019;-77
2023/07/21 10:39:26;;;;;;;5.35;1.60;;;19.60;99.90;;;;;;5111776;28;20434;-78
2023/07/21 10:42:03;;;;;;;4.40;1.70;;;19.60;99.90;;;;;;5108285;27;20033;-77
2023/07/21 10:44:35;;;;;;;2.97;1.60;;;19.70;99.90;;;;;;5133586;27;20035;-78
2023/07/21 10:47:01;;;;;;;3.60;1.80;;;19.80;99.90;;;;;;5118214;27;20031;-78
2023/07/21 10:49:27;;;;;;;3.53;1.58;;;19.90;99.90;;;;;;5130941;27;20092;-77
2023/07/21 10:51:53;;;;;;;1.70;1.40;;;19.90;99.90;;;;;;5123774;27;20059;-77
2023/07/21 10:54:18;;;;;;;2.47;1.60;;;19.80;99.90;;;;;;5135305;27;20100;-77
2023/07/21 10:56:46;;;;;;;1.90;1.70;;;19.80;99.90;;;;;;5131941;27;20023;-78
2023/07/21 10:59:13;;;;;;;2.35;1.95;;;19.70;99.90;;;;;;5132587;27;20019;-77
2023/07/21 11:01:44;;;;;;;4.07;1.98;;;19.70;99.90;;;;;;5128508;27;20030;-77
2023/07/21 11:04:17;;;;;;;4.50;2.60;;;19.70;99.90;;;;;;5131876;27;20015;-79
2023/07/21 11:06:48;;;;;;;4.47;2.67;;;19.70;99.90;;;;;;5126921;27;20027;-78
2023/07/21 11:09:16;;;;;;;4.05;2.72;;;19.60;99.90;;;;;;5133570;27;20032;-78
2023/07/21 11:11:43;;;;;;;6.53;3.60;;;19.60;99.90;;;;;;5137326;27;20023;-78
2023/07/21 11:14:30;;;;;;;5.65;3.25;;;19.50;99.90;;;;;;5135486;27;20012;-79
2023/07/21 11:16:59;;;;;;;7.43;3.58;;;19.50;99.90;;;;;;5131774;27;20039;-79
2023/07/21 11:19:27;;;;;;;6.13;3.17;;;19.50;99.90;;;;;;5140208;27;20015;-79
2023/07/21 11:21:54;;;;;;;8.68;3.40;;;19.50;99.90;;;;;;5142569;27;20031;-79
2023/07/21 11:24:25;;;;;;;7.38;3.20;;;19.60;99.90;;;;;;5123055;27;20016;-82
2023/07/21 11:26:54;;;;;;;7.03;3.10;;;19.60;99.90;;;;;;5141759;27;20118;-79
2023/07/21 11:29:20;;;;;;;8.95;3.53;;;19.60;99.90;;;;;;5136900;27;20051;-79
2023/07/21 11:31:46;;;;;;;7.93;3.67;;;19.60;99.90;;;;;;5123866;28;20023;-79
2023/07/21 11:34:29;;;;;;;7.82;3.25;;;19.70;99.90;;;;;;5141773;27;20027;-79
2023/07/21 11:36:58;;;;;;;8.90;4.32;;;19.80;99.90;;;;;;5142104;27;20023;-80
2023/07/21 11:39:24;;;;;;;10.27;4.78;;;19.90;99.90;;;;;;5137291;27;20022;-77
2023/07/21 11:41:59;;;;;;;9.68;4.68;;;20.10;99.90;;;;;;5118153;27;20401;-77
2023/07/21 11:44:35;;;;;;;8.80;4.85;;;20.30;99.90;;;;;;5132720;27;20043;-77
2023/07/21 11:47:10;;;;;;;7.93;4.90;;;20.50;99.90;;;;;;5134968;27;20027;-78
2023/07/21 11:49:45;;;;;;;9.10;4.40;;;20.70;99.90;;;;;;5135904;27;20019;-78
2023/07/21 11:52:24;;;;;;;6.85;4.60;;;20.80;99.90;;;;;;5134774;27;20511;-78
2023/07/21 11:54:50;;;;;;;10.50;5.30;;;20.80;99.90;;;;;;5110969;27;20015;-77
2023/07/21 11:57:16;;;;;;;9.50;4.72;;;20.80;99.90;;;;;;5110042;28;20034;-77
2023/07/21 11:59:42;;;;;;;9.55;4.90;;;20.90;99.90;;;;;;5134364;27;20024;-76
2023/07/21 12:02:08;;;;;;;6.00;4.45;;;20.90;99.90;;;;;;5123758;27;20024;-76
2023/07/21 12:04:35;;;;;;;6.60;4.88;;;20.90;99.90;;;;;;5121989;28;20068;-76
2023/07/21 12:07:02;;;;;;;8.98;5.35;;;21.00;99.90;;;;;;5114637;28;20364;-76
2023/07/21 12:09:28;;;;;;;8.30;5.50;;;21.20;99.90;;;;;;5124423;28;20036;-78
2023/07/21 12:11:56;;;;;;;12.02;6.15;;;21.50;99.90;;;;;;5115186;28;20070;-77
2023/07/21 12:14:23;;;;;;;10.52;6.10;;;21.60;99.90;;;;;;5133695;28;20031;-78
2023/07/21 12:16:50;;;;;;;8.07;5.72;;;21.80;99.90;;;;;;5130818;28;20063;-76
2023/07/21 12:19:16;;;;;;;9.57;5.68;;;21.90;99.90;;;;;;5133645;27;20034;-77
2023/07/21 12:21:42;;;;;;;12.05;6.82;;;21.80;99.90;;;;;;5136587;27;20056;-77
2023/07/21 12:24:07;;;;;;;11.85;7.25;;;21.80;99.90;;;;;;5135719;27;20022;-77
2023/07/21 12:26:33;;;;;;;9.63;7.30;;;21.60;99.90;;;;;;5132255;27;20522;-77
2023/07/21 12:28:59;;;;;;;11.27;7.30;;;21.60;99.90;;;;;;5128963;27;20360;-77
2023/07/21 12:31:25;;;;;;;10.40;7.63;;;21.60;99.90;;;;;;5134298;27;20098;-77
2023/07/21 12:33:51;;;;;;;9.98;7.20;;;21.60;99.90;;;;;;5137066;27;20050;-76
2023/07/21 12:36:18;;;;;;;12.73;7.20;;;21.60;99.90;;;;;;5139167;27;20098;-76
2023/07/21 12:38:46;;;;;;;12.65;7.90;;;21.70;99.90;;;;;;5138283;27;20471;-75
2023/07/21 12:41:12;;;;;;;11.32;7.55;;;21.70;99.80;;;;;;5138722;27;20023;-76
2023/07/21 12:43:38;;;;;;;13.07;8.07;;;21.80;99.80;;;;;;5136916;27;20027;-77
2023/07/21 12:46:04;;;;;;;13.48;8.27;;;22.00;99.10;;;;;;5121636;27;20027;-76
2023/07/21 12:48:30;;;;;;;12.63;8.20;;;22.00;99.30;;;;;;5139547;27;20228;-76